Time,TemperatureF,DewpointF,PressureIn,WindDirection,WindDirectionDegrees,WindSpeedMPH,WindSpeedGustMPH,Humidity,HourlyPrecipIn,Conditions,Clouds,dailyrainin,SoftwareType,DateUTC
2013-03-03 00:08:00,34.3,24.0,29.84,NNE,26,1.0,-999.0,66,-99.99,,,0.00,weatherlink.com 1.10,2013-03-03 05:08:00,
2013-03-03 00:23:00,34.1,24.0,29.84,NNE,26,0.0,-999.0,67,-99.99,,,0.00,weatherlink.com 1.10,2013-03-03 05:23:00,
2013-03-03 00:37:00,34.0,24.0,29.84,NNE,26,0.0,-999.0,67,-99.99,,,0.00,weatherlink.com 1.10,2013-03-03 05:37:00,
2013-03-03 00:52:00,33.8,24.0,29.84,NNE,26,0.0,-999.0,67,-99.99,,,0.00,weatherlink.com 1.10,2013-03-03 05:52:00,
2013-03-03 01:22:00,33.6,24.0,29.84,NNE,14,0.0,-999.0,67,-99.99,,,0.00,weatherlink.com 1.10,2013-03-03 06:22:00,
2013-03-03 01:37:00,33.4,24.0,29.84,NNE,14,0.0,-999.0,68,-99.99,,,0.00,weatherlink.com 1.10,2013-03-03 06:37:00,
2013-03-03 01:52:00,33.0,23.0,29.84,NNE,14,0.0,-999.0,68,-99.99,,,0.00,weatherlink.com 1.10,2013-03-03 06:52:00,
2013-03-03 02:07:00,32.4,23.0,29.84,NNE,14,0.0,-999.0,69,-99.99,,,0.00,weatherlink.com 1.10,2013-03-03 07:07:00,
2013-03-03 02:22:00,31.9,23.0,29.84,NNE,14,0.0,-999.0,69,-99.99,,,0.00,weatherlink.com 1.10,2013-03-03 07:22:00,
2013-03-03 02:37:00,31.3,23.0,29.83,NNE,14,0.0,-999.0,71,-99.99,,,0.00,weatherlink.com 1.10,2013-03-03 07:37:00,
2013-03-03 02:52:00,30.7,23.0,29.83,NNE,14,0.0,-999.0,72,-99.99,,,0.00,weatherlink.com 1.10,2013-03-03 07:52:00,
2013-03-03 03:07:00,30.3,23.0,29.83,NNE,14,0.0,-999.0,74,-99.99,,,0.00,weatherlink.com 1.10,2013-03-03 08:07:00,
2013-03-03 03:22:00,30.3,23.0,29.83,NNE,14,0.0,-999.0,74,-99.99,,,0.00,weatherlink.com 1.10,2013-03-03 08:22:00,
2013-03-03 03:37:00,30.4,23.0,29.83,NNE,14,0.0,-999.0,73,-99.99,,,0.00,weatherlink.com 1.10,2013-03-03 08:37:00,
2013-03-03 03:52:00,31.0,23.0,29.83,WNW,301,1.0,-999.0,72,-99.99,,,0.00,weatherlink.com 1.10,2013-03-03 08:52:00,
2013-03-03 04:07:00,31.4,23.0,29.83,WNW,302,0.0,-999.0,70,-99.99,,,0.00,weatherlink.com 1.10,2013-03-03 09:07:00,
2013-03-03 04:22:00,31.2,22.0,29.83,NNW,333,0.0,-999.0,70,-99.99,,,0.00,weatherlink.com 1.10,2013-03-03 09:22:00,
2013-03-03 04:37:00,30.7,22.0,29.83,NNW,333,0.0,-999.0,70,-99.99,,,0.00,weatherlink.com 1.10,2013-03-03 09:37:00,
2013-03-03 04:52:00,30.1,22.0,29.83,NNW,333,0.0,-999.0,71,-99.99,,,0.00,weatherlink.com 1.10,2013-03-03 09:52:00,
2013-03-03 05:07:00,29.5,22.0,29.83,NNW,333,0.0,-999.0,73,-99.99,,,0.00,weatherlink.com 1.10,2013-03-03 10:07:00,
2013-03-03 05:22:00,28.9,22.0,29.84,NNW,333,0.0,-999.0,74,-99.99,,,0.00,weatherlink.com 1.10,2013-03-03 10:22:00,
2013-03-03 05:37:00,28.5,21.0,29.84,NNW,333,0.0,-999.0,74,-99.99,,,0.00,weatherlink.com 1.10,2013-03-03 10:37:00,
2013-03-03 05:52:00,28.2,22.0,29.84,NNW,333,0.0,-999.0,76,-99.99,,,0.00,weatherlink.com 1.10,2013-03-03 10:52:00,
2013-03-03 06:07:00,28.1,21.0,29.84,NNW,333,0.0,-999.0,76,-99.99,,,0.00,weatherlink.com 1.10,2013-03-03 11:07:00,
2013-03-03 06:22:00,28.2,22.0,29.85,NNW,333,0.0,-999.0,77,-99.99,,,0.00,weatherlink.com 1.10,2013-03-03 11:22:00,
2013-03-03 06:37:00,28.4,22.0,29.85,NNW,333,0.0,-999.0,76,-99.99,,,0.00,weatherlink.com 1.10,2013-03-03 11:37:00,
2013-03-03 06:52:00,28.5,22.0,29.85,NNW,333,0.0,-999.0,77,-99.99,,,0.00,weatherlink.com 1.10,2013-03-03 11:52:00,
2013-03-03 07:07:00,28.8,22.0,29.86,NNW,333,0.0,-999.0,76,-99.99,,,0.00,weatherlink.com 1.10,2013-03-03 12:07:00,
2013-03-03 07:22:00,29.6,23.0,29.86,NNW,333,0.0,-999.0,75,-99.99,,,0.00,weatherlink.com 1.10,2013-03-03 12:22:00,
2013-03-03 07:37:00,30.6,23.0,29.87,NNW,333,2.0,-999.0,73,-99.99,,,0.00,weatherlink.com 1.10,2013-03-03 12:37:00,
2013-03-03 07:52:00,31.5,23.0,29.87,NNW,333,0.0,-999.0,71,-99.99,,,0.00,weatherlink.com 1.10,2013-03-03 12:52:00,
2013-03-03 08:07:00,32.5,23.0,29.87,NW,319,0.0,-999.0,69,-99.99,,,0.00,weatherlink.com 1.10,2013-03-03 13:07:00,
2013-03-03 08:22:00,33.5,22.0,29.87,NW,314,0.0,-999.0,64,-99.99,,,0.00,weatherlink.com 1.10,2013-03-03 13:22:00,
2013-03-03 08:37:00,34.3,23.0,29.87,NW,318,0.0,-999.0,64,-99.99,,,0.00,weatherlink.com 1.10,2013-03-03 13:37:00,
2013-03-03 08:52:00,35.7,23.0,29.87,NNW,328,0.0,-999.0,60,-99.99,,,0.00,weatherlink.com 1.10,2013-03-03 13:52:00,
2013-03-03 09:07:00,37.4,23.0,29.87,WNW,288,0.0,-999.0,57,-99.99,,,0.00,weatherlink.com 1.10,2013-03-03 14:07:00,
2013-03-03 09:22:00,38.6,24.0,29.87,NNW,348,1.0,-999.0,56,-99.99,,,0.00,weatherlink.com 1.10,2013-03-03 14:22:00,
2013-03-03 09:37:00,40.0,24.0,29.86,NE,38,1.0,-999.0,53,-99.99,,,0.00,weatherlink.com 1.10,2013-03-03 14:37:00,
2013-03-03 09:52:00,39.1,23.0,29.86,NW,326,0.0,-999.0,52,-99.99,,,0.00,weatherlink.com 1.10,2013-03-03 14:52:00,
2013-03-03 10:07:00,39.3,23.0,29.86,WNW,290,0.0,-999.0,53,-99.99,,,0.00,weatherlink.com 1.10,2013-03-03 15:07:00,
2013-03-03 10:22:00,38.9,22.0,29.86,WNW,301,0.0,-999.0,52,-99.99,,,0.00,weatherlink.com 1.10,2013-03-03 15:22:00,
2013-03-03 10:37:00,39.6,22.0,29.86,NNE,30,2.0,-999.0,50,-99.99,,,0.00,weatherlink.com 1.10,2013-03-03 15:37:00,
2013-03-03 10:52:00,39.5,23.0,29.85,WSW,253,0.0,-999.0,51,-99.99,,,0.00,weatherlink.com 1.10,2013-03-03 15:52:00,
2013-03-03 11:07:00,39.9,22.0,29.86,NNW,337,2.0,-999.0,50,-99.99,,,0.00,weatherlink.com 1.10,2013-03-03 16:07:00,
2013-03-03 11:22:00,40.7,22.0,29.86,WNW,302,2.0,-999.0,48,-99.99,,,0.00,weatherlink.com 1.10,2013-03-03 16:22:00,
2013-03-03 11:52:00,41.5,24.0,29.85,NW,316,1.0,-999.0,51,-99.99,,,0.00,weatherlink.com 1.10,2013-03-03 16:52:00,
2013-03-03 12:07:00,41.0,21.0,29.84,NW,317,1.0,-999.0,46,-99.99,,,0.00,weatherlink.com 1.10,2013-03-03 17:07:00,
2013-03-03 12:22:00,41.1,22.0,29.84,NNE,19,1.0,-999.0,47,-99.99,,,0.00,weatherlink.com 1.10,2013-03-03 17:22:00,
2013-03-03 12:37:00,41.5,22.0,29.83,SSW,207,1.0,-999.0,47,-99.99,,,0.00,weatherlink.com 1.10,2013-03-03 17:37:00,
2013-03-03 12:52:00,42.1,24.0,29.82,WNW,296,2.0,-999.0,48,-99.99,,,0.00,weatherlink.com 1.10,2013-03-03 17:52:00,
2013-03-03 13:07:00,44.0,25.0,29.82,NNE,17,0.0,-999.0,48,-99.99,,,0.00,weatherlink.com 1.10,2013-03-03 18:07:00,
2013-03-03 13:22:00,46.1,25.0,29.80,SSW,203,2.0,-999.0,43,-99.99,,,0.00,weatherlink.com 1.10,2013-03-03 18:22:00,
2013-03-03 13:37:00,45.5,24.0,29.80,West,279,2.0,-999.0,43,-99.99,,,0.00,weatherlink.com 1.10,2013-03-03 18:37:00,
2013-03-03 13:52:00,46.8,25.0,29.79,North,355,0.0,-999.0,42,-99.99,,,0.00,weatherlink.com 1.10,2013-03-03 18:52:00,
2013-03-03 14:08:00,46.3,25.0,29.79,NW,321,1.0,-999.0,43,-99.99,,,0.00,weatherlink.com 1.10,2013-03-03 19:08:00,
2013-03-03 14:23:00,46.6,27.0,29.79,North,5,1.0,-999.0,47,-99.99,,,0.00,weatherlink.com 1.10,2013-03-03 19:23:00,
2013-03-03 14:38:00,48.3,25.0,29.78,NW,304,1.0,-999.0,40,-99.99,,,0.00,weatherlink.com 1.10,2013-03-03 19:38:00,
2013-03-03 14:52:00,47.0,26.0,29.77,North,11,1.0,-999.0,44,-99.99,,,0.00,weatherlink.com 1.10,2013-03-03 19:52:00,
2013-03-03 15:08:00,47.8,26.0,29.77,NW,326,1.0,-999.0,43,-99.99,,,0.00,weatherlink.com 1.10,2013-03-03 20:08:00,
2013-03-03 15:23:00,48.5,23.0,29.77,SW,234,0.0,-999.0,37,-99.99,,,0.00,weatherlink.com 1.10,2013-03-03 20:23:00,
2013-03-03 15:38:00,47.5,23.0,29.77,SSW,213,0.0,-999.0,38,-99.99,,,0.00,weatherlink.com 1.10,2013-03-03 20:38:00,
2013-03-03 15:53:00,48.3,23.0,29.77,NNW,331,2.0,-999.0,37,-99.99,,,0.00,weatherlink.com 1.10,2013-03-03 20:53:00,
2013-03-03 16:08:00,47.8,23.0,29.77,WNW,294,0.0,-999.0,38,-99.99,,,0.00,weatherlink.com 1.10,2013-03-03 21:08:00,
2013-03-03 16:23:00,47.7,24.0,29.77,NNE,31,1.0,-999.0,40,-99.99,,,0.00,weatherlink.com 1.10,2013-03-03 21:23:00,
2013-03-03 16:38:00,47.9,24.0,29.77,NNE,14,0.0,-999.0,40,-99.99,,,0.00,weatherlink.com 1.10,2013-03-03 21:38:00,
2013-03-03 16:53:00,47.2,24.0,29.77,NNW,348,0.0,-999.0,40,-99.99,,,0.00,weatherlink.com 1.10,2013-03-03 21:53:00,
2013-03-03 17:07:00,46.4,24.0,29.77,NNE,33,2.0,-999.0,42,-99.99,,,0.00,weatherlink.com 1.10,2013-03-03 22:07:00,
2013-03-03 17:22:00,45.4,23.0,29.77,NNW,337,0.0,-999.0,42,-99.99,,,0.00,weatherlink.com 1.10,2013-03-03 22:22:00,
2013-03-03 17:37:00,44.5,23.0,29.78,North,5,0.0,-999.0,43,-99.99,,,0.00,weatherlink.com 1.10,2013-03-03 22:37:00,
2013-03-03 17:52:00,43.4,23.0,29.78,North,11,0.0,-999.0,44,-99.99,,,0.00,weatherlink.com 1.10,2013-03-03 22:52:00,
2013-03-03 18:07:00,42.5,23.0,29.78,NE,36,0.0,-999.0,46,-99.99,,,0.00,weatherlink.com 1.10,2013-03-03 23:07:00,
2013-03-03 18:22:00,41.6,23.0,29.79,NE,36,0.0,-999.0,47,-99.99,,,0.00,weatherlink.com 1.10,2013-03-03 23:22:00,
2013-03-03 18:37:00,40.6,22.0,29.80,NE,36,0.0,-999.0,48,-99.99,,,0.00,weatherlink.com 1.10,2013-03-03 23:37:00,
2013-03-03 18:52:00,39.7,22.0,29.81,NE,36,0.0,-999.0,49,-99.99,,,0.00,weatherlink.com 1.10,2013-03-03 23:52:00,
2013-03-03 19:07:00,38.9,22.0,29.81,NE,36,0.0,-999.0,51,-99.99,,,0.00,weatherlink.com 1.10,2013-03-04 00:07:00,
2013-03-03 19:22:00,38.4,23.0,29.82,NNW,347,1.0,-999.0,54,-99.99,,,0.00,weatherlink.com 1.10,2013-03-04 00:22:00,
2013-03-03 19:37:00,38.5,22.0,29.83,North,9,2.0,-999.0,52,-99.99,,,0.00,weatherlink.com 1.10,2013-03-04 00:37:00,
2013-03-03 19:52:00,38.1,22.0,29.84,NNE,12,1.0,-999.0,52,-99.99,,,0.00,weatherlink.com 1.10,2013-03-04 00:52:00,
2013-03-03 20:07:00,37.8,21.0,29.84,NNE,19,0.0,-999.0,52,-99.99,,,0.00,weatherlink.com 1.10,2013-03-04 01:07:00,
2013-03-03 20:22:00,37.6,22.0,29.85,ENE,64,1.0,-999.0,53,-99.99,,,0.00,weatherlink.com 1.10,2013-03-04 01:22:00,
2013-03-03 20:37:00,37.4,21.0,29.86,NNW,344,2.0,-999.0,52,-99.99,,,0.00,weatherlink.com 1.10,2013-03-04 01:37:00,
2013-03-03 20:52:00,37.1,21.0,29.87,NE,41,0.0,-999.0,52,-99.99,,,0.00,weatherlink.com 1.10,2013-03-04 01:52:00,
2013-03-03 21:07:00,36.6,20.0,29.87,North,355,1.0,-999.0,52,-99.99,,,0.00,weatherlink.com 1.10,2013-03-04 02:07:00,
2013-03-03 21:22:00,36.1,20.0,29.88,NNE,18,2.0,-999.0,53,-99.99,,,0.00,weatherlink.com 1.10,2013-03-04 02:22:00,
2013-03-03 21:37:00,35.7,20.0,29.89,NE,34,0.0,-999.0,53,-99.99,,,0.00,weatherlink.com 1.10,2013-03-04 02:37:00,
2013-03-03 21:52:00,35.3,20.0,29.89,NNE,13,0.0,-999.0,54,-99.99,,,0.00,weatherlink.com 1.10,2013-03-04 02:52:00,
2013-03-03 22:07:00,34.8,20.0,29.89,NNE,19,0.0,-999.0,55,-99.99,,,0.00,weatherlink.com 1.10,2013-03-04 03:07:00,
2013-03-03 22:22:00,34.3,20.0,29.89,North,5,1.0,-999.0,56,-99.99,,,0.00,weatherlink.com 1.10,2013-03-04 03:22:00,
2013-03-03 22:37:00,33.9,20.0,29.89,NNW,345,1.0,-999.0,56,-99.99,,,0.00,weatherlink.com 1.10,2013-03-04 03:37:00,
2013-03-03 22:52:00,33.7,20.0,29.89,NE,35,0.0,-999.0,57,-99.99,,,0.00,weatherlink.com 1.10,2013-03-04 03:52:00,
2013-03-03 23:07:00,33.3,20.0,29.90,NNW,332,0.0,-999.0,58,-99.99,,,0.00,weatherlink.com 1.10,2013-03-04 04:07:00,
2013-03-03 23:22:00,32.9,19.0,29.90,NE,53,0.0,-999.0,58,-99.99,,,0.00,weatherlink.com 1.10,2013-03-04 04:22:00,
2013-03-03 23:37:00,32.5,19.0,29.90,North,350,1.0,-999.0,59,-99.99,,,0.00,weatherlink.com 1.10,2013-03-04 04:37:00,
2013-03-03 23:52:00,32.1,19.0,29.90,North,350,1.0,-999.0,59,-99.99,,,0.00,weatherlink.com 1.10,2013-03-04 04:52:00,